sensor_id;sensor_type;location;lat;lon;timestamp;P1;durP1;ratioP1;P2;durP2;ratioP2
34064;SDS011;20339;49.754;20.158;2022-11-10T00:02:16;19.20;;;12.40;;
34064;SDS011;20339;49.754;20.158;2022-11-10T00:04:48;23.50;;;16.40;;
34064;SDS011;20339;49.754;20.158;2022-11-10T00:07:20;18.60;;;12.10;;
34064;SDS011;20339;49.754;20.158;2022-11-10T00:09:54;20.70;;;14.60;;
34064;SDS011;20339;49.754;20.158;2022-11-10T00:12:25;20.90;;;14.50;;
34064;SDS011;20339;49.754;20.158;2022-11-10T00:14:58;22.80;;;16.30;;
34064;SDS011;20339;49.754;20.158;2022-11-10T00:17:45;21.90;;;14.70;;
34064;SDS011;20339;49.754;20.158;2022-11-10T00:20:17;19.60;;;13.40;;
34064;SDS011;20339;49.754;20.158;2022-11-10T00:22:48;20.20;;;13.70;;
34064;SDS011;20339;49.754;20.158;2022-11-10T00:25:19;18.60;;;13.20;;
34064;SDS011;20339;49.754;20.158;2022-11-10T00:27:51;19.50;;;14.00;;
34064;SDS011;20339;49.754;20.158;2022-11-10T00:30:22;19.10;;;13.10;;
34064;SDS011;20339;49.754;20.158;2022-11-10T00:32:53;22.20;;;15.40;;
34064;SDS011;20339;49.754;20.158;2022-11-10T00:35:24;22.50;;;14.80;;
34064;SDS011;20339;49.754;20.158;2022-11-10T00:37:55;21.60;;;15.30;;
34064;SDS011;20339;49.754;20.158;2022-11-10T00:40:27;18.90;;;13.10;;
34064;SDS011;20339;49.754;20.158;2022-11-10T00:42:58;18.10;;;13.70;;
34064;SDS011;20339;49.754;20.158;2022-11-10T00:45:29;21.20;;;15.00;;
34064;SDS011;20339;49.754;20.158;2022-11-10T00:48:00;24.70;;;16.80;;
34064;SDS011;20339;49.754;20.158;2022-11-10T00:50:31;20.80;;;14.90;;
34064;SDS011;20339;49.754;20.158;2022-11-10T00:53:03;21.60;;;15.10;;
34064;SDS011;20339;49.754;20.158;2022-11-10T00:55:37;23.80;;;16.00;;
34064;SDS011;20339;49.754;20.158;2022-11-10T00:58:08;23.00;;;16.20;;
34064;SDS011;20339;49.754;20.158;2022-11-10T01:00:40;23.60;;;16.60;;
34064;SDS011;20339;49.754;20.158;2022-11-10T01:03:14;22.90;;;16.00;;
34064;SDS011;20339;49.754;20.158;2022-11-10T01:05:46;22.50;;;15.50;;
34064;SDS011;20339;49.754;20.158;2022-11-10T01:08:17;21.90;;;14.50;;
34064;SDS011;20339;49.754;20.158;2022-11-10T01:10:50;18.70;;;14.00;;
34064;SDS011;20339;49.754;20.158;2022-11-10T01:13:29;20.00;;;13.80;;
34064;SDS011;20339;49.754;20.158;2022-11-10T01:16:03;19.60;;;14.20;;
34064;SDS011;20339;49.754;20.158;2022-11-10T01:18:36;23.30;;;16.70;;
34064;SDS011;20339;49.754;20.158;2022-11-10T01:21:07;24.60;;;17.60;;
34064;SDS011;20339;49.754;20.158;2022-11-10T01:23:39;22.70;;;16.20;;
34064;SDS011;20339;49.754;20.158;2022-11-10T01:26:10;22.30;;;15.60;;
34064;SDS011;20339;49.754;20.158;2022-11-10T01:28:42;24.00;;;16.40;;
34064;SDS011;20339;49.754;20.158;2022-11-10T01:31:14;20.60;;;14.50;;
34064;SDS011;20339;49.754;20.158;2022-11-10T01:33:49;21.00;;;15.40;;
34064;SDS011;20339;49.754;20.158;2022-11-10T01:36:20;19.20;;;13.90;;
34064;SDS011;20339;49.754;20.158;2022-11-10T01:38:51;20.40;;;13.70;;
34064;SDS011;20339;49.754;20.158;2022-11-10T01:41:23;20.60;;;13.60;;
34064;SDS011;20339;49.754;20.158;2022-11-10T01:46:42;18.70;;;12.90;;
34064;SDS011;20339;49.754;20.158;2022-11-10T01:49:14;21.10;;;12.90;;
34064;SDS011;20339;49.754;20.158;2022-11-10T01:51:48;20.00;;;12.90;;
34064;SDS011;20339;49.754;20.158;2022-11-10T01:54:23;17.40;;;11.70;;
34064;SDS011;20339;49.754;20.158;2022-11-10T01:56:57;16.80;;;10.90;;
34064;SDS011;20339;49.754;20.158;2022-11-10T01:59:34;17.40;;;13.30;;
34064;SDS011;20339;49.754;20.158;2022-11-10T02:02:10;19.70;;;12.50;;
34064;SDS011;20339;49.754;20.158;2022-11-10T02:04:45;16.80;;;12.70;;
34064;SDS011;20339;49.754;20.158;2022-11-10T02:07:18;18.40;;;13.50;;
34064;SDS011;20339;49.754;20.158;2022-11-10T02:09:52;16.30;;;10.40;;
34064;SDS011;20339;49.754;20.158;2022-11-10T02:12:24;19.00;;;12.30;;
34064;SDS011;20339;49.754;20.158;2022-11-10T02:15:05;16.80;;;10.30;;
34064;SDS011;20339;49.754;20.158;2022-11-10T02:17:40;16.70;;;11.50;;
34064;SDS011;20339;49.754;20.158;2022-11-10T02:20:16;16.00;;;11.50;;
34064;SDS011;20339;49.754;20.158;2022-11-10T02:22:48;18.90;;;12.30;;
34064;SDS011;20339;49.754;20.158;2022-11-10T02:25:20;19.80;;;13.30;;
34064;SDS011;20339;49.754;20.158;2022-11-10T02:27:53;18.30;;;11.90;;
34064;SDS011;20339;49.754;20.158;2022-11-10T02:30:27;19.50;;;13.00;;
34064;SDS011;20339;49.754;20.158;2022-11-10T02:32:58;19.00;;;13.10;;
34064;SDS011;20339;49.754;20.158;2022-11-10T02:35:31;15.60;;;10.20;;
34064;SDS011;20339;49.754;20.158;2022-11-10T02:38:03;19.20;;;13.40;;
34064;SDS011;20339;49.754;20.158;2022-11-10T02:40:34;17.20;;;12.80;;
34064;SDS011;20339;49.754;20.158;2022-11-10T02:43:06;17.40;;;11.40;;
34064;SDS011;20339;49.754;20.158;2022-11-10T02:45:40;20.20;;;13.10;;
34064;SDS011;20339;49.754;20.158;2022-11-10T02:48:12;18.00;;;13.20;;
34064;SDS011;20339;49.754;20.158;2022-11-10T02:50:44;17.70;;;13.30;;
34064;SDS011;20339;49.754;20.158;2022-11-10T02:53:15;18.40;;;12.60;;
34064;SDS011;20339;49.754;20.158;2022-11-10T02:55:46;19.40;;;12.50;;
34064;SDS011;20339;49.754;20.158;2022-11-10T02:58:17;20.00;;;12.80;;
34064;SDS011;20339;49.754;20.158;2022-11-10T03:00:49;17.80;;;12.50;;
34064;SDS011;20339;49.754;20.158;2022-11-10T03:03:20;18.70;;;13.40;;
34064;SDS011;20339;49.754;20.158;2022-11-10T03:05:51;17.80;;;12.00;;
34064;SDS011;20339;49.754;20.158;2022-11-10T03:08:22;17.10;;;12.60;;
34064;SDS011;20339;49.754;20.158;2022-11-10T03:10:53;17.70;;;12.60;;
34064;SDS011;20339;49.754;20.158;2022-11-10T03:13:25;18.80;;;12.60;;
34064;SDS011;20339;49.754;20.158;2022-11-10T03:15:57;19.40;;;12.60;;
34064;SDS011;20339;49.754;20.158;2022-11-10T03:18:28;16.90;;;12.20;;
34064;SDS011;20339;49.754;20.158;2022-11-10T03:21:00;17.80;;;11.20;;
34064;SDS011;20339;49.754;20.158;2022-11-10T03:23:31;17.20;;;11.90;;
34064;SDS011;20339;49.754;20.158;2022-11-10T03:26:03;17.10;;;8.60;;
34064;SDS011;20339;49.754;20.158;2022-11-10T03:28:37;19.00;;;10.90;;
34064;SDS011;20339;49.754;20.158;2022-11-10T03:31:09;14.70;;;9.70;;
34064;SDS011;20339;49.754;20.158;2022-11-10T03:33:40;17.90;;;10.60;;
34064;SDS011;20339;49.754;20.158;2022-11-10T03:36:12;19.80;;;13.50;;
34064;SDS011;20339;49.754;20.158;2022-11-10T03:38:43;17.70;;;12.70;;
34064;SDS011;20339;49.754;20.158;2022-11-10T03:41:17;18.70;;;12.30;;
34064;SDS011;20339;49.754;20.158;2022-11-10T03:43:48;19.60;;;10.10;;
34064;SDS011;20339;49.754;20.158;2022-11-10T03:46:19;17.60;;;12.20;;
34064;SDS011;20339;49.754;20.158;2022-11-10T03:48:51;17.90;;;10.90;;
34064;SDS011;20339;49.754;20.158;2022-11-10T03:51:24;17.70;;;10.60;;
34064;SDS011;20339;49.754;20.158;2022-11-10T03:53:56;11.90;;;7.30;;
34064;SDS011;20339;49.754;20.158;2022-11-10T03:56:28;19.60;;;12.90;;
34064;SDS011;20339;49.754;20.158;2022-11-10T03:58:59;17.20;;;10.80;;
34064;SDS011;20339;49.754;20.158;2022-11-10T04:01:30;16.30;;;11.70;;
34064;SDS011;20339;49.754;20.158;2022-11-10T04:04:01;16.70;;;12.10;;
34064;SDS011;20339;49.754;20.158;2022-11-10T04:06:32;17.70;;;12.20;;
34064;SDS011;20339;49.754;20.158;2022-11-10T04:09:38;17.60;;;13.00;;
34064;SDS011;20339;49.754;20.158;2022-11-10T04:12:09;18.10;;;12.90;;
34064;SDS011;20339;49.754;20.158;2022-11-10T04:14:58;16.30;;;11.90;;
34064;SDS011;20339;49.754;20.158;2022-11-10T04:18:01;19.30;;;13.30;;
34064;SDS011;20339;49.754;20.158;2022-11-10T04:20:46;19.50;;;12.10;;
34064;SDS011;20339;49.754;20.158;2022-11-10T04:23:17;15.80;;;11.40;;
34064;SDS011;20339;49.754;20.158;2022-11-10T04:25:56;19.50;;;12.60;;
34064;SDS011;20339;49.754;20.158;2022-11-10T04:28:48;16.40;;;11.90;;
34064;SDS011;20339;49.754;20.158;2022-11-10T04:31:21;16.80;;;11.00;;
34064;SDS011;20339;49.754;20.158;2022-11-10T04:33:53;17.10;;;12.40;;
34064;SDS011;20339;49.754;20.158;2022-11-10T04:36:27;19.10;;;12.30;;
34064;SDS011;20339;49.754;20.158;2022-11-10T04:38:59;15.50;;;10.70;;
34064;SDS011;20339;49.754;20.158;2022-11-10T04:41:33;18.80;;;12.60;;
34064;SDS011;20339;49.754;20.158;2022-11-10T04:44:04;16.90;;;12.20;;
34064;SDS011;20339;49.754;20.158;2022-11-10T04:46:36;17.50;;;12.50;;
34064;SDS011;20339;49.754;20.158;2022-11-10T04:49:09;18.20;;;13.10;;
34064;SDS011;20339;49.754;20.158;2022-11-10T04:51:41;16.60;;;11.70;;
34064;SDS011;20339;49.754;20.158;2022-11-10T04:54:14;16.20;;;12.10;;
34064;SDS011;20339;49.754;20.158;2022-11-10T04:56:45;16.60;;;12.40;;
34064;SDS011;20339;49.754;20.158;2022-11-10T04:59:16;19.60;;;13.10;;
34064;SDS011;20339;49.754;20.158;2022-11-10T05:01:48;20.20;;;13.40;;
34064;SDS011;20339;49.754;20.158;2022-11-10T05:04:20;18.90;;;12.30;;
34064;SDS011;20339;49.754;20.158;2022-11-10T05:06:51;14.10;;;10.30;;
34064;SDS011;20339;49.754;20.158;2022-11-10T05:09:24;18.40;;;12.10;;
34064;SDS011;20339;49.754;20.158;2022-11-10T05:11:55;19.00;;;10.70;;
34064;SDS011;20339;49.754;20.158;2022-11-10T05:14:26;29.90;;;18.30;;
34064;SDS011;20339;49.754;20.158;2022-11-10T05:16:58;19.60;;;13.40;;
34064;SDS011;20339;49.754;20.158;2022-11-10T05:19:31;18.90;;;12.40;;
34064;SDS011;20339;49.754;20.158;2022-11-10T05:22:02;21.10;;;14.10;;
34064;SDS011;20339;49.754;20.158;2022-11-10T05:24:34;21.00;;;14.30;;
34064;SDS011;20339;49.754;20.158;2022-11-10T05:27:08;19.10;;;13.50;;
34064;SDS011;20339;49.754;20.158;2022-11-10T05:29:39;61.20;;;27.30;;
34064;SDS011;20339;49.754;20.158;2022-11-10T05:32:10;30.80;;;14.30;;
34064;SDS011;20339;49.754;20.158;2022-11-10T05:34:41;26.00;;;15.70;;
34064;SDS011;20339;49.754;20.158;2022-11-10T05:37:12;19.40;;;12.50;;
34064;SDS011;20339;49.754;20.158;2022-11-10T05:39:46;19.40;;;11.70;;
34064;SDS011;20339;49.754;20.158;2022-11-10T05:42:17;16.10;;;9.40;;
34064;SDS011;20339;49.754;20.158;2022-11-10T05:44:48;19.40;;;12.20;;
34064;SDS011;20339;49.754;20.158;2022-11-10T05:47:19;18.00;;;10.10;;
34064;SDS011;20339;49.754;20.158;2022-11-10T05:49:51;16.00;;;9.80;;
34064;SDS011;20339;49.754;20.158;2022-11-10T05:52:22;15.40;;;10.00;;
34064;SDS011;20339;49.754;20.158;2022-11-10T05:54:54;16.10;;;10.50;;
34064;SDS011;20339;49.754;20.158;2022-11-10T05:57:25;19.50;;;11.60;;
34064;SDS011;20339;49.754;20.158;2022-11-10T05:59:56;19.70;;;11.40;;
34064;SDS011;20339;49.754;20.158;2022-11-10T06:02:27;18.80;;;11.10;;
34064;SDS011;20339;49.754;20.158;2022-11-10T06:04:58;16.80;;;8.50;;
34064;SDS011;20339;49.754;20.158;2022-11-10T06:07:30;17.00;;;10.80;;
34064;SDS011;20339;49.754;20.158;2022-11-10T06:10:01;17.10;;;10.90;;
34064;SDS011;20339;49.754;20.158;2022-11-10T06:12:32;18.80;;;12.00;;
34064;SDS011;20339;49.754;20.158;2022-11-10T06:15:04;20.30;;;13.70;;
34064;SDS011;20339;49.754;20.158;2022-11-10T06:17:38;20.40;;;13.80;;
34064;SDS011;20339;49.754;20.158;2022-11-10T06:20:10;14.90;;;9.60;;
34064;SDS011;20339;49.754;20.158;2022-11-10T06:22:44;15.10;;;9.20;;
34064;SDS011;20339;49.754;20.158;2022-11-10T06:25:29;15.60;;;10.50;;
34064;SDS011;20339;49.754;20.158;2022-11-10T06:28:04;13.00;;;8.60;;
34064;SDS011;20339;49.754;20.158;2022-11-10T06:30:36;17.40;;;10.60;;
34064;SDS011;20339;49.754;20.158;2022-11-10T06:33:08;15.20;;;8.90;;
34064;SDS011;20339;49.754;20.158;2022-11-10T06:35:40;18.60;;;12.80;;
34064;SDS011;20339;49.754;20.158;2022-11-10T06:38:11;18.40;;;12.00;;
34064;SDS011;20339;49.754;20.158;2022-11-10T06:40:42;16.10;;;10.90;;
34064;SDS011;20339;49.754;20.158;2022-11-10T06:43:13;16.60;;;10.10;;
34064;SDS011;20339;49.754;20.158;2022-11-10T06:45:44;16.10;;;9.60;;
34064;SDS011;20339;49.754;20.158;2022-11-10T06:48:16;14.40;;;10.00;;
34064;SDS011;20339;49.754;20.158;2022-11-10T06:50:47;18.50;;;11.80;;
34064;SDS011;20339;49.754;20.158;2022-11-10T06:53:19;16.80;;;11.90;;
34064;SDS011;20339;49.754;20.158;2022-11-10T06:55:50;16.90;;;12.10;;
34064;SDS011;20339;49.754;20.158;2022-11-10T06:58:22;17.50;;;12.50;;
34064;SDS011;20339;49.754;20.158;2022-11-10T07:00:53;15.90;;;11.10;;
34064;SDS011;20339;49.754;20.158;2022-11-10T07:03:27;16.40;;;11.10;;
34064;SDS011;20339;49.754;20.158;2022-11-10T07:05:58;17.60;;;12.60;;
34064;SDS011;20339;49.754;20.158;2022-11-10T07:08:29;16.90;;;12.50;;
34064;SDS011;20339;49.754;20.158;2022-11-10T07:11:00;17.00;;;12.40;;
34064;SDS011;20339;49.754;20.158;2022-11-10T07:13:32;15.40;;;11.20;;
34064;SDS011;20339;49.754;20.158;2022-11-10T07:16:04;15.80;;;11.90;;
34064;SDS011;20339;49.754;20.158;2022-11-10T07:18:37;17.60;;;12.40;;
34064;SDS011;20339;49.754;20.158;2022-11-10T07:21:09;18.80;;;13.40;;
34064;SDS011;20339;49.754;20.158;2022-11-10T07:23:41;18.00;;;13.60;;
34064;SDS011;20339;49.754;20.158;2022-11-10T07:26:14;17.70;;;13.20;;
34064;SDS011;20339;49.754;20.158;2022-11-10T07:28:46;17.20;;;12.50;;
34064;SDS011;20339;49.754;20.158;2022-11-10T07:31:19;16.20;;;11.80;;
34064;SDS011;20339;49.754;20.158;2022-11-10T07:33:50;17.30;;;13.00;;
34064;SDS011;20339;49.754;20.158;2022-11-10T07:36:22;14.90;;;11.30;;
34064;SDS011;20339;49.754;20.158;2022-11-10T07:38:58;16.80;;;12.50;;
34064;SDS011;20339;49.754;20.158;2022-11-10T07:41:29;18.10;;;13.50;;
34064;SDS011;20339;49.754;20.158;2022-11-10T07:44:01;18.80;;;13.20;;
34064;SDS011;20339;49.754;20.158;2022-11-10T07:46:35;19.10;;;13.50;;
34064;SDS011;20339;49.754;20.158;2022-11-10T07:49:07;16.70;;;13.50;;
34064;SDS011;20339;49.754;20.158;2022-11-10T07:51:38;17.50;;;12.60;;
34064;SDS011;20339;49.754;20.158;2022-11-10T07:54:10;17.90;;;13.00;;
34064;SDS011;20339;49.754;20.158;2022-11-10T07:56:41;17.50;;;12.30;;
34064;SDS011;20339;49.754;20.158;2022-11-10T07:59:13;17.40;;;12.20;;
34064;SDS011;20339;49.754;20.158;2022-11-10T08:01:44;18.40;;;12.90;;
34064;SDS011;20339;49.754;20.158;2022-11-10T08:04:15;18.80;;;12.50;;
34064;SDS011;20339;49.754;20.158;2022-11-10T08:06:47;17.90;;;13.70;;
34064;SDS011;20339;49.754;20.158;2022-11-10T08:09:18;17.40;;;12.50;;
34064;SDS011;20339;49.754;20.158;2022-11-10T08:11:50;18.70;;;13.10;;
34064;SDS011;20339;49.754;20.158;2022-11-10T08:14:21;17.40;;;12.00;;
34064;SDS011;20339;49.754;20.158;2022-11-10T08:16:57;16.10;;;10.90;;
34064;SDS011;20339;49.754;20.158;2022-11-10T08:19:30;20.40;;;13.00;;
34064;SDS011;20339;49.754;20.158;2022-11-10T08:22:02;20.90;;;13.70;;
34064;SDS011;20339;49.754;20.158;2022-11-10T08:24:33;18.90;;;13.70;;
34064;SDS011;20339;49.754;20.158;2022-11-10T08:27:04;20.00;;;13.00;;
34064;SDS011;20339;49.754;20.158;2022-11-10T08:29:36;18.10;;;13.30;;
34064;SDS011;20339;49.754;20.158;2022-11-10T08:32:07;18.00;;;12.60;;
34064;SDS011;20339;49.754;20.158;2022-11-10T08:34:38;19.30;;;12.90;;
34064;SDS011;20339;49.754;20.158;2022-11-10T08:37:10;18.10;;;12.80;;
34064;SDS011;20339;49.754;20.158;2022-11-10T08:39:41;18.10;;;12.20;;
34064;SDS011;20339;49.754;20.158;2022-11-10T08:42:14;15.60;;;12.60;;
34064;SDS011;20339;49.754;20.158;2022-11-10T08:44:46;15.70;;;10.80;;
34064;SDS011;20339;49.754;20.158;2022-11-10T08:47:27;16.70;;;12.60;;
34064;SDS011;20339;49.754;20.158;2022-11-10T08:49:59;19.30;;;11.70;;
34064;SDS011;20339;49.754;20.158;2022-11-10T08:52:30;16.50;;;11.90;;
34064;SDS011;20339;49.754;20.158;2022-11-10T08:55:04;19.80;;;12.70;;
34064;SDS011;20339;49.754;20.158;2022-11-10T08:57:36;17.70;;;11.60;;
34064;SDS011;20339;49.754;20.158;2022-11-10T09:00:09;17.60;;;12.30;;
34064;SDS011;20339;49.754;20.158;2022-11-10T09:02:44;16.00;;;11.50;;
34064;SDS011;20339;49.754;20.158;2022-11-10T09:05:15;19.20;;;13.40;;
34064;SDS011;20339;49.754;20.158;2022-11-10T09:07:47;17.30;;;11.70;;
34064;SDS011;20339;49.754;20.158;2022-11-10T09:10:19;18.10;;;13.10;;
34064;SDS011;20339;49.754;20.158;2022-11-10T09:12:52;18.30;;;13.70;;
34064;SDS011;20339;49.754;20.158;2022-11-10T09:15:28;16.30;;;12.40;;
34064;SDS011;20339;49.754;20.158;2022-11-10T09:18:04;17.30;;;12.40;;
34064;SDS011;20339;49.754;20.158;2022-11-10T09:20:36;17.70;;;12.10;;
34064;SDS011;20339;49.754;20.158;2022-11-10T09:23:08;17.60;;;11.90;;
34064;SDS011;20339;49.754;20.158;2022-11-10T09:25:40;18.50;;;11.40;;
34064;SDS011;20339;49.754;20.158;2022-11-10T09:28:16;17.80;;;11.40;;
34064;SDS011;20339;49.754;20.158;2022-11-10T09:30:49;18.20;;;11.20;;
34064;SDS011;20339;49.754;20.158;2022-11-10T09:33:21;16.90;;;11.80;;
34064;SDS011;20339;49.754;20.158;2022-11-10T09:35:54;18.90;;;13.00;;
34064;SDS011;20339;49.754;20.158;2022-11-10T09:38:27;19.50;;;12.60;;
34064;SDS011;20339;49.754;20.158;2022-11-10T09:40:59;18.20;;;12.90;;
34064;SDS011;20339;49.754;20.158;2022-11-10T09:43:34;18.30;;;12.80;;
34064;SDS011;20339;49.754;20.158;2022-11-10T09:46:11;19.20;;;13.80;;
34064;SDS011;20339;49.754;20.158;2022-11-10T09:48:48;18.80;;;13.20;;
34064;SDS011;20339;49.754;20.158;2022-11-10T09:51:23;16.10;;;10.50;;
34064;SDS011;20339;49.754;20.158;2022-11-10T09:53:58;18.20;;;11.90;;
34064;SDS011;20339;49.754;20.158;2022-11-10T09:56:34;17.80;;;13.60;;
34064;SDS011;20339;49.754;20.158;2022-11-10T09:59:09;19.00;;;14.40;;
34064;SDS011;20339;49.754;20.158;2022-11-10T10:01:48;16.90;;;12.90;;
34064;SDS011;20339;49.754;20.158;2022-11-10T10:04:29;16.80;;;13.50;;
34064;SDS011;20339;49.754;20.158;2022-11-10T10:07:14;20.30;;;12.50;;
34064;SDS011;20339;49.754;20.158;2022-11-10T10:09:52;18.50;;;13.40;;
34064;SDS011;20339;49.754;20.158;2022-11-10T10:12:39;18.50;;;12.50;;
34064;SDS011;20339;49.754;20.158;2022-11-10T10:15:28;18.40;;;13.20;;
34064;SDS011;20339;49.754;20.158;2022-11-10T10:18:20;17.00;;;12.40;;
34064;SDS011;20339;49.754;20.158;2022-11-10T10:21:02;19.00;;;14.20;;
34064;SDS011;20339;49.754;20.158;2022-11-10T10:23:43;23.50;;;14.60;;
34064;SDS011;20339;49.754;20.158;2022-11-10T10:26:22;17.90;;;13.20;;
34064;SDS011;20339;49.754;20.158;2022-11-10T10:28:55;18.80;;;13.80;;
34064;SDS011;20339;49.754;20.158;2022-11-10T10:31:31;17.10;;;13.20;;
34064;SDS011;20339;49.754;20.158;2022-11-10T10:34:10;19.90;;;12.30;;
34064;SDS011;20339;49.754;20.158;2022-11-10T10:36:43;16.40;;;10.80;;
34064;SDS011;20339;49.754;20.158;2022-11-10T10:39:16;17.60;;;12.90;;
34064;SDS011;20339;49.754;20.158;2022-11-10T10:41:59;16.50;;;12.10;;
34064;SDS011;20339;49.754;20.158;2022-11-10T10:44:32;18.00;;;11.80;;
34064;SDS011;20339;49.754;20.158;2022-11-10T10:47:04;15.60;;;12.30;;
34064;SDS011;20339;49.754;20.158;2022-11-10T10:49:35;17.10;;;12.20;;
34064;SDS011;20339;49.754;20.158;2022-11-10T10:52:09;16.50;;;12.30;;
34064;SDS011;20339;49.754;20.158;2022-11-10T10:54:42;14.70;;;11.60;;
34064;SDS011;20339;49.754;20.158;2022-11-10T10:57:20;15.60;;;11.10;;
34064;SDS011;20339;49.754;20.158;2022-11-10T10:59:52;15.60;;;11.40;;
34064;SDS011;20339;49.754;20.158;2022-11-10T11:02:48;13.30;;;9.40;;
34064;SDS011;20339;49.754;20.158;2022-11-10T11:05:31;14.80;;;10.40;;
34064;SDS011;20339;49.754;20.158;2022-11-10T11:08:03;15.40;;;11.50;;
34064;SDS011;20339;49.754;20.158;2022-11-10T11:10:35;18.60;;;12.70;;
34064;SDS011;20339;49.754;20.158;2022-11-10T11:13:17;13.90;;;10.50;;
34064;SDS011;20339;49.754;20.158;2022-11-10T11:15:59;15.60;;;10.90;;
34064;SDS011;20339;49.754;20.158;2022-11-10T11:18:32;13.90;;;10.90;;
34064;SDS011;20339;49.754;20.158;2022-11-10T11:21:11;14.10;;;10.90;;
34064;SDS011;20339;49.754;20.158;2022-11-10T11:24:02;14.20;;;9.90;;
34064;SDS011;20339;49.754;20.158;2022-11-10T11:26:50;14.80;;;10.30;;
34064;SDS011;20339;49.754;20.158;2022-11-10T11:29:31;13.40;;;9.90;;
34064;SDS011;20339;49.754;20.158;2022-11-10T11:32:26;12.40;;;8.60;;
34064;SDS011;20339;49.754;20.158;2022-11-10T11:35:13;11.70;;;9.00;;
34064;SDS011;20339;49.754;20.158;2022-11-10T11:37:58;13.00;;;9.80;;
34064;SDS011;20339;49.754;20.158;2022-11-10T11:40:37;12.80;;;9.20;;
34064;SDS011;20339;49.754;20.158;2022-11-10T11:46:09;9.80;;;6.20;;
34064;SDS011;20339;49.754;20.158;2022-11-10T11:48:50;10.60;;;7.70;;
34064;SDS011;20339;49.754;20.158;2022-11-10T11:51:33;11.40;;;7.70;;
34064;SDS011;20339;49.754;20.158;2022-11-10T11:54:19;12.70;;;8.00;;
34064;SDS011;20339;49.754;20.158;2022-11-10T11:56:58;11.30;;;7.50;;
34064;SDS011;20339;49.754;20.158;2022-11-10T11:59:49;11.10;;;7.80;;
34064;SDS011;20339;49.754;20.158;2022-11-10T12:02:49;11.70;;;7.80;;
34064;SDS011;20339;49.754;20.158;2022-11-10T12:05:45;10.90;;;8.20;;
34064;SDS011;20339;49.754;20.158;2022-11-10T12:08:28;12.70;;;8.10;;
34064;SDS011;20339;49.754;20.158;2022-11-10T12:11:09;13.70;;;8.60;;
34064;SDS011;20339;49.754;20.158;2022-11-10T12:13:52;12.30;;;8.20;;
34064;SDS011;20339;49.754;20.158;2022-11-10T12:16:30;11.50;;;7.30;;
34064;SDS011;20339;49.754;20.158;2022-11-10T12:19:08;12.30;;;8.10;;
34064;SDS011;20339;49.754;20.158;2022-11-10T12:21:54;11.30;;;8.50;;
34064;SDS011;20339;49.754;20.158;2022-11-10T12:24:36;10.50;;;6.20;;
34064;SDS011;20339;49.754;20.158;2022-11-10T12:27:19;12.60;;;8.10;;
34064;SDS011;20339;49.754;20.158;2022-11-10T12:29:56;12.00;;;7.60;;
34064;SDS011;20339;49.754;20.158;2022-11-10T12:32:32;12.70;;;8.70;;
34064;SDS011;20339;49.754;20.158;2022-11-10T12:35:12;10.20;;;8.10;;
34064;SDS011;20339;49.754;20.158;2022-11-10T12:37:52;9.30;;;6.60;;
34064;SDS011;20339;49.754;20.158;2022-11-10T12:40:30;10.50;;;7.60;;
34064;SDS011;20339;49.754;20.158;2022-11-10T12:43:06;7.80;;;4.60;;
34064;SDS011;20339;49.754;20.158;2022-11-10T12:45:48;10.30;;;5.40;;
34064;SDS011;20339;49.754;20.158;2022-11-10T12:48:27;6.40;;;4.30;;
34064;SDS011;20339;49.754;20.158;2022-11-10T12:51:06;6.80;;;4.30;;
34064;SDS011;20339;49.754;20.158;2022-11-10T12:53:42;7.60;;;4.60;;
34064;SDS011;20339;49.754;20.158;2022-11-10T12:56:15;6.20;;;4.60;;
34064;SDS011;20339;49.754;20.158;2022-11-10T12:58:50;6.30;;;3.90;;
34064;SDS011;20339;49.754;20.158;2022-11-10T13:02:03;7.60;;;5.00;;
34064;SDS011;20339;49.754;20.158;2022-11-10T13:04:46;6.60;;;4.20;;
34064;SDS011;20339;49.754;20.158;2022-11-10T13:07:40;8.40;;;5.20;;
34064;SDS011;20339;49.754;20.158;2022-11-10T13:10:19;10.30;;;7.30;;
34064;SDS011;20339;49.754;20.158;2022-11-10T13:13:02;12.30;;;7.70;;
34064;SDS011;20339;49.754;20.158;2022-11-10T13:15:46;18.00;;;9.70;;
34064;SDS011;20339;49.754;20.158;2022-11-10T13:18:23;19.60;;;12.10;;
34064;SDS011;20339;49.754;20.158;2022-11-10T13:21:09;15.40;;;11.60;;
34064;SDS011;20339;49.754;20.158;2022-11-10T13:26:49;13.30;;;9.30;;
34064;SDS011;20339;49.754;20.158;2022-11-10T13:29:29;16.20;;;10.20;;
34064;SDS011;20339;49.754;20.158;2022-11-10T13:38:19;16.90;;;10.00;;
34064;SDS011;20339;49.754;20.158;2022-11-10T13:43:52;20.00;;;12.40;;
34064;SDS011;20339;49.754;20.158;2022-11-10T13:46:34;16.40;;;11.90;;
34064;SDS011;20339;49.754;20.158;2022-11-10T13:49:38;18.40;;;11.60;;
34064;SDS011;20339;49.754;20.158;2022-11-10T13:52:27;19.20;;;12.50;;
34064;SDS011;20339;49.754;20.158;2022-11-10T13:55:23;20.10;;;15.70;;
34064;SDS011;20339;49.754;20.158;2022-11-10T13:58:03;23.20;;;19.40;;
34064;SDS011;20339;49.754;20.158;2022-11-10T14:00:38;23.80;;;19.30;;
34064;SDS011;20339;49.754;20.158;2022-11-10T14:06:22;31.70;;;22.50;;
34064;SDS011;20339;49.754;20.158;2022-11-10T14:09:03;26.90;;;18.60;;
34064;SDS011;20339;49.754;20.158;2022-11-10T14:11:41;29.40;;;20.80;;
34064;SDS011;20339;49.754;20.158;2022-11-10T14:14:17;18.40;;;14.40;;
34064;SDS011;20339;49.754;20.158;2022-11-10T14:16:53;15.20;;;10.90;;
34064;SDS011;20339;49.754;20.158;2022-11-10T14:19:33;17.20;;;11.60;;
34064;SDS011;20339;49.754;20.158;2022-11-10T14:22:13;16.70;;;13.10;;
34064;SDS011;20339;49.754;20.158;2022-11-10T14:24:52;18.40;;;11.00;;
34064;SDS011;20339;49.754;20.158;2022-11-10T14:27:28;16.50;;;11.30;;
34064;SDS011;20339;49.754;20.158;2022-11-10T14:30:04;26.40;;;19.30;;
34064;SDS011;20339;49.754;20.158;2022-11-10T14:32:54;19.20;;;13.30;;
34064;SDS011;20339;49.754;20.158;2022-11-10T14:35:28;21.00;;;15.00;;
34064;SDS011;20339;49.754;20.158;2022-11-10T14:38:04;16.50;;;11.20;;
34064;SDS011;20339;49.754;20.158;2022-11-10T14:40:44;19.80;;;14.10;;
34064;SDS011;20339;49.754;20.158;2022-11-10T14:43:26;18.90;;;13.40;;
34064;SDS011;20339;49.754;20.158;2022-11-10T14:45:59;21.60;;;14.90;;
34064;SDS011;20339;49.754;20.158;2022-11-10T14:48:36;19.00;;;12.10;;
34064;SDS011;20339;49.754;20.158;2022-11-10T14:51:10;16.00;;;12.00;;
34064;SDS011;20339;49.754;20.158;2022-11-10T14:53:46;16.80;;;10.20;;
34064;SDS011;20339;49.754;20.158;2022-11-10T14:56:21;17.60;;;11.30;;
34064;SDS011;20339;49.754;20.158;2022-11-10T14:58:55;21.80;;;12.20;;
34064;SDS011;20339;49.754;20.158;2022-11-10T15:01:32;23.90;;;12.20;;
34064;SDS011;20339;49.754;20.158;2022-11-10T15:04:10;28.10;;;16.90;;
34064;SDS011;20339;49.754;20.158;2022-11-10T15:06:42;26.30;;;15.00;;
34064;SDS011;20339;49.754;20.158;2022-11-10T15:09:20;24.40;;;15.80;;
34064;SDS011;20339;49.754;20.158;2022-11-10T15:12:04;25.60;;;16.20;;
34064;SDS011;20339;49.754;20.158;2022-11-10T15:14:46;33.80;;;20.30;;
34064;SDS011;20339;49.754;20.158;2022-11-10T15:17:44;27.70;;;16.70;;
34064;SDS011;20339;49.754;20.158;2022-11-10T15:20:31;27.60;;;16.20;;